Terminal Aerodrome Forecast
Issued by NWS

Home | Current Version | Previous Version | Graphics & Text | Print | Product List | Glossary On
Versions: 1 2 3 4 5 6 7 8 9 10 11 12 13 14 15 16 17 18
847
FTUS43 KTOP 072152 AAA
TAFFOE
TAF AMD
KFOE 072152Z 0722/0818 32008KT P6SM BKN080
     FM080300 31009KT P6SM SCT200=

USA.gov is the U.S. government's official web portal to all federal, state and local government web resources and services.